Lake City, Kentucky
Current Conditions -  °F | °C
As of 3:35 AM on Thursday 18 Dec 2014 (Local Time) from K5M9 Reporting Station
Overcast Overcast  
Wind Chill: 24°   Ceiling: 5500
Heat Index: 30°   Visibility: 10mi
Dew Point: 27°   Wind: 6mph
Humidity: 89%   Direction: 120°ESE
Pressure: 30.26"   Gusts: NA
Location:  37.0861°N, 88.2694°W
Report Text: K5M9 180935Z AUTO 12005KT 10SM OVC055 M01/M03 A3026 RMK AO2 T10101026
Loading
Personal Weather Stations






























Interactive Weather Map New forecast layout! Learn more

10-Day Weather Forecast

Advertisements
Track Severe Weather on mobile